sensor_id;sensor_type;location;lat;lon;timestamp;P1;durP1;ratioP1;P2;durP2;ratioP2
54502;SDS011;40411;50.090;21.954;2022-09-09T00:00:40;68.30;;;36.92;;
54502;SDS011;40411;50.090;21.954;2022-09-09T00:03:27;63.50;;;36.30;;
54502;SDS011;40411;50.090;21.954;2022-09-09T00:06:05;68.75;;;37.67;;
54502;SDS011;40411;50.090;21.954;2022-09-09T00:11:27;62.90;;;34.70;;
54502;SDS011;40411;50.090;21.954;2022-09-09T00:14:20;64.38;;;36.83;;
54502;SDS011;40411;50.090;21.954;2022-09-09T00:16:55;72.35;;;36.40;;
54502;SDS011;40411;50.090;21.954;2022-09-09T00:19:30;65.80;;;38.15;;
54502;SDS011;40411;50.090;21.954;2022-09-09T00:24:42;71.30;;;39.00;;
54502;SDS011;40411;50.090;21.954;2022-09-09T00:27:13;65.85;;;38.38;;
54502;SDS011;40411;50.090;21.954;2022-09-09T00:29:55;65.47;;;38.08;;
54502;SDS011;40411;50.090;21.954;2022-09-09T00:32:24;71.38;;;39.63;;
54502;SDS011;40411;50.090;21.954;2022-09-09T00:34:56;71.32;;;40.38;;
54502;SDS011;40411;50.090;21.954;2022-09-09T00:37:28;68.43;;;38.53;;
54502;SDS011;40411;50.090;21.954;2022-09-09T00:39:59;69.20;;;37.97;;
54502;SDS011;40411;50.090;21.954;2022-09-09T00:58:31;66.45;;;37.08;;
54502;SDS011;40411;50.090;21.954;2022-09-09T01:03:52;66.32;;;38.47;;
54502;SDS011;40411;50.090;21.954;2022-09-09T01:11:34;71.03;;;38.47;;
54502;SDS011;40411;50.090;21.954;2022-09-09T01:14:13;67.95;;;37.47;;
54502;SDS011;40411;50.090;21.954;2022-09-09T01:16:53;72.13;;;37.65;;
54502;SDS011;40411;50.090;21.954;2022-09-09T01:19:25;72.30;;;38.58;;
54502;SDS011;40411;50.090;21.954;2022-09-09T01:22:06;69.60;;;37.90;;
54502;SDS011;40411;50.090;21.954;2022-09-09T01:28:03;64.65;;;35.88;;
54502;SDS011;40411;50.090;21.954;2022-09-09T01:30:37;66.07;;;36.70;;
54502;SDS011;40411;50.090;21.954;2022-09-09T01:33:07;63.45;;;35.55;;
54502;SDS011;40411;50.090;21.954;2022-09-09T01:35:48;58.58;;;32.67;;
54502;SDS011;40411;50.090;21.954;2022-09-09T01:38:26;68.53;;;35.55;;
54502;SDS011;40411;50.090;21.954;2022-09-09T01:40:54;55.63;;;29.45;;
54502;SDS011;40411;50.090;21.954;2022-09-09T01:43:24;60.10;;;34.75;;
54502;SDS011;40411;50.090;21.954;2022-09-09T01:45:53;60.95;;;35.65;;
54502;SDS011;40411;50.090;21.954;2022-09-09T01:48:21;66.35;;;35.35;;
54502;SDS011;40411;50.090;21.954;2022-09-09T01:50:59;67.53;;;35.70;;
54502;SDS011;40411;50.090;21.954;2022-09-09T01:53:25;63.50;;;34.72;;
54502;SDS011;40411;50.090;21.954;2022-09-09T01:56:02;58.47;;;33.40;;
54502;SDS011;40411;50.090;21.954;2022-09-09T02:04:08;58.78;;;33.67;;
54502;SDS011;40411;50.090;21.954;2022-09-09T02:06:44;61.92;;;33.97;;
54502;SDS011;40411;50.090;21.954;2022-09-09T02:09:22;65.03;;;34.03;;
54502;SDS011;40411;50.090;21.954;2022-09-09T02:12:11;52.22;;;32.40;;
54502;SDS011;40411;50.090;21.954;2022-09-09T02:14:48;56.13;;;32.25;;
54502;SDS011;40411;50.090;21.954;2022-09-09T02:17:21;60.28;;;32.58;;
54502;SDS011;40411;50.090;21.954;2022-09-09T02:20:00;57.08;;;32.45;;
54502;SDS011;40411;50.090;21.954;2022-09-09T02:22:45;55.65;;;30.95;;
54502;SDS011;40411;50.090;21.954;2022-09-09T02:25:17;56.65;;;31.65;;
54502;SDS011;40411;50.090;21.954;2022-09-09T02:27:45;58.35;;;31.60;;
54502;SDS011;40411;50.090;21.954;2022-09-09T02:30:15;53.67;;;30.40;;
54502;SDS011;40411;50.090;21.954;2022-09-09T02:32:48;56.67;;;31.03;;
54502;SDS011;40411;50.090;21.954;2022-09-09T02:35:19;53.03;;;30.13;;
54502;SDS011;40411;50.090;21.954;2022-09-09T02:37:50;56.80;;;31.05;;
54502;SDS011;40411;50.090;21.954;2022-09-09T02:40:19;53.05;;;29.35;;
54502;SDS011;40411;50.090;21.954;2022-09-09T02:45:22;55.35;;;28.85;;
54502;SDS011;40411;50.090;21.954;2022-09-09T02:47:53;52.25;;;29.75;;
54502;SDS011;40411;50.090;21.954;2022-09-09T02:50:25;50.33;;;29.85;;
54502;SDS011;40411;50.090;21.954;2022-09-09T02:53:18;54.95;;;30.50;;
54502;SDS011;40411;50.090;21.954;2022-09-09T02:56:07;53.10;;;29.33;;
54502;SDS011;40411;50.090;21.954;2022-09-09T02:58:41;48.90;;;28.15;;
54502;SDS011;40411;50.090;21.954;2022-09-09T03:01:08;52.28;;;30.23;;
54502;SDS011;40411;50.090;21.954;2022-09-09T03:03:34;55.88;;;28.55;;
54502;SDS011;40411;50.090;21.954;2022-09-09T03:06:05;47.60;;;28.75;;
54502;SDS011;40411;50.090;21.954;2022-09-09T03:08:31;50.35;;;30.52;;
54502;SDS011;40411;50.090;21.954;2022-09-09T03:10:59;49.42;;;29.50;;
54502;SDS011;40411;50.090;21.954;2022-09-09T03:13:28;47.50;;;29.98;;
54502;SDS011;40411;50.090;21.954;2022-09-09T03:15:54;54.00;;;30.67;;
54502;SDS011;40411;50.090;21.954;2022-09-09T03:18:21;63.42;;;30.85;;
54502;SDS011;40411;50.090;21.954;2022-09-09T03:20:50;51.00;;;29.83;;
54502;SDS011;40411;50.090;21.954;2022-09-09T03:23:18;55.33;;;32.67;;
54502;SDS011;40411;50.090;21.954;2022-09-09T03:25:51;55.83;;;30.40;;
54502;SDS011;40411;50.090;21.954;2022-09-09T03:28:23;51.50;;;30.33;;
54502;SDS011;40411;50.090;21.954;2022-09-09T03:30:57;61.20;;;31.77;;
54502;SDS011;40411;50.090;21.954;2022-09-09T03:33:32;53.00;;;31.50;;
54502;SDS011;40411;50.090;21.954;2022-09-09T03:35:58;49.35;;;28.17;;
54502;SDS011;40411;50.090;21.954;2022-09-09T03:38:24;51.08;;;31.23;;
54502;SDS011;40411;50.090;21.954;2022-09-09T03:40:51;54.08;;;31.33;;
54502;SDS011;40411;50.090;21.954;2022-09-09T03:43:21;59.80;;;33.28;;
54502;SDS011;40411;50.090;21.954;2022-09-09T03:45:50;58.83;;;32.40;;
54502;SDS011;40411;50.090;21.954;2022-09-09T03:48:16;54.42;;;31.50;;
54502;SDS011;40411;50.090;21.954;2022-09-09T03:50:46;64.40;;;33.75;;
54502;SDS011;40411;50.090;21.954;2022-09-09T03:53:14;54.38;;;31.52;;
54502;SDS011;40411;50.090;21.954;2022-09-09T03:55:44;58.47;;;31.98;;
54502;SDS011;40411;50.090;21.954;2022-09-09T03:58:14;54.70;;;29.17;;
54502;SDS011;40411;50.090;21.954;2022-09-09T04:00:41;60.25;;;31.85;;
54502;SDS011;40411;50.090;21.954;2022-09-09T04:03:10;53.38;;;29.98;;
54502;SDS011;40411;50.090;21.954;2022-09-09T04:05:38;53.38;;;32.63;;
54502;SDS011;40411;50.090;21.954;2022-09-09T04:08:06;58.17;;;31.02;;
54502;SDS011;40411;50.090;21.954;2022-09-09T04:10:32;49.80;;;31.58;;
54502;SDS011;40411;50.090;21.954;2022-09-09T04:12:58;56.22;;;32.88;;
54502;SDS011;40411;50.090;21.954;2022-09-09T04:15:26;53.80;;;31.00;;
54502;SDS011;40411;50.090;21.954;2022-09-09T04:17:51;54.30;;;31.65;;
54502;SDS011;40411;50.090;21.954;2022-09-09T04:20:17;57.10;;;32.55;;
54502;SDS011;40411;50.090;21.954;2022-09-09T04:22:44;58.05;;;31.60;;
54502;SDS011;40411;50.090;21.954;2022-09-09T04:25:10;51.63;;;30.35;;
54502;SDS011;40411;50.090;21.954;2022-09-09T04:27:36;52.08;;;31.30;;
54502;SDS011;40411;50.090;21.954;2022-09-09T04:30:02;52.95;;;31.02;;
54502;SDS011;40411;50.090;21.954;2022-09-09T04:34:58;54.58;;;29.98;;
54502;SDS011;40411;50.090;21.954;2022-09-09T04:37:24;51.42;;;32.95;;
54502;SDS011;40411;50.090;21.954;2022-09-09T04:39:51;55.28;;;33.50;;
54502;SDS011;40411;50.090;21.954;2022-09-09T04:42:16;52.72;;;30.98;;
54502;SDS011;40411;50.090;21.954;2022-09-09T04:44:46;57.50;;;32.15;;
54502;SDS011;40411;50.090;21.954;2022-09-09T04:47:12;53.40;;;30.83;;
54502;SDS011;40411;50.090;21.954;2022-09-09T04:49:41;52.53;;;30.67;;
54502;SDS011;40411;50.090;21.954;2022-09-09T04:52:07;53.40;;;31.15;;
54502;SDS011;40411;50.090;21.954;2022-09-09T04:54:34;57.25;;;30.23;;
54502;SDS011;40411;50.090;21.954;2022-09-09T04:57:00;57.75;;;32.50;;
54502;SDS011;40411;50.090;21.954;2022-09-09T04:59:26;55.15;;;30.90;;
54502;SDS011;40411;50.090;21.954;2022-09-09T05:01:55;52.60;;;30.27;;
54502;SDS011;40411;50.090;21.954;2022-09-09T05:04:22;53.03;;;31.35;;
54502;SDS011;40411;50.090;21.954;2022-09-09T05:06:48;56.95;;;33.00;;
54502;SDS011;40411;50.090;21.954;2022-09-09T05:09:14;52.22;;;31.48;;
54502;SDS011;40411;50.090;21.954;2022-09-09T05:11:40;56.75;;;31.52;;
54502;SDS011;40411;50.090;21.954;2022-09-09T05:14:17;62.88;;;33.05;;
54502;SDS011;40411;50.090;21.954;2022-09-09T05:16:46;57.40;;;32.78;;
54502;SDS011;40411;50.090;21.954;2022-09-09T05:19:13;58.10;;;33.03;;
54502;SDS011;40411;50.090;21.954;2022-09-09T05:21:46;55.47;;;33.70;;
54502;SDS011;40411;50.090;21.954;2022-09-09T05:24:14;60.65;;;33.05;;
54502;SDS011;40411;50.090;21.954;2022-09-09T05:26:40;64.72;;;33.13;;
54502;SDS011;40411;50.090;21.954;2022-09-09T05:29:07;53.78;;;30.80;;
54502;SDS011;40411;50.090;21.954;2022-09-09T05:31:33;60.47;;;31.50;;
54502;SDS011;40411;50.090;21.954;2022-09-09T05:34:03;46.67;;;29.98;;
54502;SDS011;40411;50.090;21.954;2022-09-09T05:36:29;53.58;;;31.83;;
54502;SDS011;40411;50.090;21.954;2022-09-09T05:38:56;53.85;;;31.77;;
54502;SDS011;40411;50.090;21.954;2022-09-09T05:41:24;63.10;;;32.72;;
54502;SDS011;40411;50.090;21.954;2022-09-09T05:43:54;59.58;;;31.17;;
54502;SDS011;40411;50.090;21.954;2022-09-09T05:46:21;61.60;;;33.03;;
54502;SDS011;40411;50.090;21.954;2022-09-09T05:48:51;52.72;;;32.67;;
54502;SDS011;40411;50.090;21.954;2022-09-09T05:51:24;56.90;;;32.73;;
54502;SDS011;40411;50.090;21.954;2022-09-09T05:53:54;57.83;;;32.63;;
54502;SDS011;40411;50.090;21.954;2022-09-09T05:56:30;54.60;;;31.60;;
54502;SDS011;40411;50.090;21.954;2022-09-09T05:58:58;56.45;;;31.13;;
54502;SDS011;40411;50.090;21.954;2022-09-09T06:01:33;56.05;;;32.60;;
54502;SDS011;40411;50.090;21.954;2022-09-09T06:04:02;55.60;;;32.05;;
54502;SDS011;40411;50.090;21.954;2022-09-09T06:06:31;54.20;;;32.08;;
54502;SDS011;40411;50.090;21.954;2022-09-09T06:09:03;56.80;;;32.50;;
54502;SDS011;40411;50.090;21.954;2022-09-09T06:11:36;48.33;;;29.98;;
54502;SDS011;40411;50.090;21.954;2022-09-09T06:14:04;50.85;;;29.60;;
54502;SDS011;40411;50.090;21.954;2022-09-09T06:16:31;48.30;;;29.65;;
54502;SDS011;40411;50.090;21.954;2022-09-09T06:19:04;51.42;;;29.90;;
54502;SDS011;40411;50.090;21.954;2022-09-09T06:21:32;56.50;;;31.67;;
54502;SDS011;40411;50.090;21.954;2022-09-09T06:24:01;54.78;;;31.73;;
54502;SDS011;40411;50.090;21.954;2022-09-09T06:26:32;56.78;;;32.30;;
54502;SDS011;40411;50.090;21.954;2022-09-09T06:29:01;54.00;;;30.20;;
54502;SDS011;40411;50.090;21.954;2022-09-09T06:31:30;47.90;;;30.00;;
54502;SDS011;40411;50.090;21.954;2022-09-09T06:34:06;52.63;;;30.90;;
54502;SDS011;40411;50.090;21.954;2022-09-09T06:36:37;54.67;;;30.55;;
54502;SDS011;40411;50.090;21.954;2022-09-09T06:39:05;52.35;;;29.05;;
54502;SDS011;40411;50.090;21.954;2022-09-09T06:41:33;49.30;;;28.65;;
54502;SDS011;40411;50.090;21.954;2022-09-09T06:44:02;42.13;;;26.30;;
54502;SDS011;40411;50.090;21.954;2022-09-09T06:46:39;28.08;;;19.20;;
54502;SDS011;40411;50.090;21.954;2022-09-09T06:49:07;27.77;;;17.55;;
54502;SDS011;40411;50.090;21.954;2022-09-09T06:51:34;27.73;;;16.13;;
54502;SDS011;40411;50.090;21.954;2022-09-09T06:54:03;21.70;;;14.75;;
54502;SDS011;40411;50.090;21.954;2022-09-09T06:56:31;18.48;;;13.32;;
54502;SDS011;40411;50.090;21.954;2022-09-09T06:59:03;20.27;;;13.27;;
54502;SDS011;40411;50.090;21.954;2022-09-09T07:01:36;20.25;;;12.95;;
54502;SDS011;40411;50.090;21.954;2022-09-09T07:04:08;19.27;;;12.88;;
54502;SDS011;40411;50.090;21.954;2022-09-09T07:06:37;17.05;;;12.32;;
54502;SDS011;40411;50.090;21.954;2022-09-09T07:09:08;19.02;;;12.27;;
54502;SDS011;40411;50.090;21.954;2022-09-09T07:11:40;16.48;;;11.98;;
54502;SDS011;40411;50.090;21.954;2022-09-09T07:14:12;15.82;;;11.25;;
54502;SDS011;40411;50.090;21.954;2022-09-09T07:16:43;16.80;;;11.68;;
54502;SDS011;40411;50.090;21.954;2022-09-09T07:19:11;15.95;;;11.85;;
54502;SDS011;40411;50.090;21.954;2022-09-09T07:21:38;14.57;;;10.98;;
54502;SDS011;40411;50.090;21.954;2022-09-09T07:24:06;16.00;;;11.65;;
54502;SDS011;40411;50.090;21.954;2022-09-09T07:26:36;15.98;;;10.88;;
54502;SDS011;40411;50.090;21.954;2022-09-09T07:29:03;15.02;;;11.45;;
54502;SDS011;40411;50.090;21.954;2022-09-09T07:31:31;13.75;;;10.48;;
54502;SDS011;40411;50.090;21.954;2022-09-09T07:34:01;15.13;;;10.48;;
54502;SDS011;40411;50.090;21.954;2022-09-09T07:36:29;13.80;;;10.30;;
54502;SDS011;40411;50.090;21.954;2022-09-09T07:38:59;11.65;;;8.80;;
54502;SDS011;40411;50.090;21.954;2022-09-09T07:41:30;14.05;;;9.60;;
54502;SDS011;40411;50.090;21.954;2022-09-09T07:44:11;13.40;;;8.63;;
54502;SDS011;40411;50.090;21.954;2022-09-09T07:46:41;11.55;;;7.45;;
54502;SDS011;40411;50.090;21.954;2022-09-09T07:49:10;12.70;;;7.85;;
54502;SDS011;40411;50.090;21.954;2022-09-09T07:51:38;8.85;;;7.00;;
54502;SDS011;40411;50.090;21.954;2022-09-09T07:54:07;11.57;;;7.45;;
54502;SDS011;40411;50.090;21.954;2022-09-09T07:56:37;10.65;;;7.47;;
54502;SDS011;40411;50.090;21.954;2022-09-09T07:59:03;14.15;;;8.25;;
54502;SDS011;40411;50.090;21.954;2022-09-09T08:01:33;10.68;;;6.97;;
54502;SDS011;40411;50.090;21.954;2022-09-09T08:04:07;11.90;;;6.45;;
54502;SDS011;40411;50.090;21.954;2022-09-09T08:06:38;9.18;;;6.70;;
54502;SDS011;40411;50.090;21.954;2022-09-09T08:09:08;10.98;;;6.05;;
54502;SDS011;40411;50.090;21.954;2022-09-09T08:11:35;13.88;;;7.03;;
54502;SDS011;40411;50.090;21.954;2022-09-09T08:14:03;9.13;;;5.93;;
54502;SDS011;40411;50.090;21.954;2022-09-09T08:16:31;9.77;;;5.85;;
54502;SDS011;40411;50.090;21.954;2022-09-09T08:18:59;10.15;;;5.30;;
54502;SDS011;40411;50.090;21.954;2022-09-09T08:21:29;11.73;;;5.95;;
54502;SDS011;40411;50.090;21.954;2022-09-09T08:23:59;10.55;;;6.35;;
54502;SDS011;40411;50.090;21.954;2022-09-09T08:28:55;11.65;;;7.45;;
54502;SDS011;40411;50.090;21.954;2022-09-09T08:31:25;8.90;;;5.80;;
54502;SDS011;40411;50.090;21.954;2022-09-09T08:33:57;7.90;;;4.90;;
54502;SDS011;40411;50.090;21.954;2022-09-09T08:36:30;8.55;;;5.60;;
54502;SDS011;40411;50.090;21.954;2022-09-09T08:39:03;8.57;;;5.70;;
54502;SDS011;40411;50.090;21.954;2022-09-09T08:41:35;9.55;;;5.43;;
54502;SDS011;40411;50.090;21.954;2022-09-09T08:52:15;8.43;;;4.88;;
54502;SDS011;40411;50.090;21.954;2022-09-09T08:57:14;12.00;;;5.03;;
54502;SDS011;40411;50.090;21.954;2022-09-09T08:59:52;7.18;;;4.97;;
54502;SDS011;40411;50.090;21.954;2022-09-09T09:02:38;8.45;;;5.00;;
54502;SDS011;40411;50.090;21.954;2022-09-09T09:16:11;9.38;;;5.55;;
54502;SDS011;40411;50.090;21.954;2022-09-09T09:18:42;8.57;;;5.32;;
54502;SDS011;40411;50.090;21.954;2022-09-09T09:21:20;9.88;;;5.28;;
54502;SDS011;40411;50.090;21.954;2022-09-09T09:23:55;7.60;;;5.40;;
54502;SDS011;40411;50.090;21.954;2022-09-09T09:26:29;8.75;;;5.15;;
54502;SDS011;40411;50.090;21.954;2022-09-09T09:28:59;8.77;;;4.57;;
54502;SDS011;40411;50.090;21.954;2022-09-09T09:31:35;8.45;;;5.10;;
54502;SDS011;40411;50.090;21.954;2022-09-09T09:34:01;7.35;;;4.80;;
54502;SDS011;40411;50.090;21.954;2022-09-09T09:36:33;7.93;;;4.90;;
54502;SDS011;40411;50.090;21.954;2022-09-09T09:39:26;6.60;;;4.60;;
54502;SDS011;40411;50.090;21.954;2022-09-09T09:41:58;6.82;;;4.50;;
54502;SDS011;40411;50.090;21.954;2022-09-09T09:44:43;7.35;;;4.50;;
54502;SDS011;40411;50.090;21.954;2022-09-09T09:47:15;6.00;;;4.28;;
54502;SDS011;40411;50.090;21.954;2022-09-09T09:52:23;6.75;;;4.20;;
54502;SDS011;40411;50.090;21.954;2022-09-09T09:54:51;6.35;;;4.55;;
54502;SDS011;40411;50.090;21.954;2022-09-09T09:57:22;6.57;;;4.47;;
54502;SDS011;40411;50.090;21.954;2022-09-09T10:02:47;5.53;;;3.80;;
54502;SDS011;40411;50.090;21.954;2022-09-09T10:05:24;5.55;;;3.53;;
54502;SDS011;40411;50.090;21.954;2022-09-09T10:10:34;7.38;;;3.10;;
54502;SDS011;40411;50.090;21.954;2022-09-09T10:13:09;4.68;;;3.00;;
54502;SDS011;40411;50.090;21.954;2022-09-09T10:15:50;5.00;;;2.60;;
54502;SDS011;40411;50.090;21.954;2022-09-09T10:18:41;6.68;;;2.72;;
54502;SDS011;40411;50.090;21.954;2022-09-09T10:21:34;6.13;;;2.50;;
54502;SDS011;40411;50.090;21.954;2022-09-09T10:26:58;6.43;;;3.15;;
54502;SDS011;40411;50.090;21.954;2022-09-09T10:35:39;6.43;;;2.92;;
54502;SDS011;40411;50.090;21.954;2022-09-09T10:41:10;5.15;;;3.30;;
54502;SDS011;40411;50.090;21.954;2022-09-09T10:49:28;4.90;;;2.95;;
54502;SDS011;40411;50.090;21.954;2022-09-09T10:52:16;5.47;;;2.95;;
54502;SDS011;40411;50.090;21.954;2022-09-09T10:57:47;4.55;;;2.97;;
54502;SDS011;40411;50.090;21.954;2022-09-09T11:00:17;5.13;;;2.90;;
54502;SDS011;40411;50.090;21.954;2022-09-09T11:02:47;4.40;;;2.47;;
54502;SDS011;40411;50.090;21.954;2022-09-09T11:08:01;5.75;;;3.15;;
54502;SDS011;40411;50.090;21.954;2022-09-09T11:10:59;6.20;;;3.30;;
54502;SDS011;40411;50.090;21.954;2022-09-09T11:18:49;6.25;;;3.22;;
54502;SDS011;40411;50.090;21.954;2022-09-09T11:21:28;5.35;;;3.03;;
54502;SDS011;40411;50.090;21.954;2022-09-09T11:24:02;7.63;;;2.92;;
54502;SDS011;40411;50.090;21.954;2022-09-09T11:26:38;4.22;;;2.40;;
54502;SDS011;40411;50.090;21.954;2022-09-09T11:40:29;4.57;;;2.60;;
54502;SDS011;40411;50.090;21.954;2022-09-09T11:42:48;6.32;;;2.65;;
54502;SDS011;40411;50.090;21.954;2022-09-09T11:45:26;5.35;;;2.95;;
54502;SDS011;40411;50.090;21.954;2022-09-09T11:47:55;8.40;;;2.80;;
54502;SDS011;40411;50.090;21.954;2022-09-09T11:52:49;5.78;;;3.20;;
54502;SDS011;40411;50.090;21.954;2022-09-09T11:55:26;6.05;;;3.17;;
54502;SDS011;40411;50.090;21.954;2022-09-09T11:57:59;8.13;;;3.25;;
54502;SDS011;40411;50.090;21.954;2022-09-09T12:00:32;5.63;;;3.05;;
54502;SDS011;40411;50.090;21.954;2022-09-09T12:03:03;4.93;;;2.75;;
54502;SDS011;40411;50.090;21.954;2022-09-09T12:05:44;5.75;;;3.20;;
54502;SDS011;40411;50.090;21.954;2022-09-09T12:08:15;6.18;;;3.58;;
54502;SDS011;40411;50.090;21.954;2022-09-09T12:10:54;5.82;;;3.15;;
54502;SDS011;40411;50.090;21.954;2022-09-09T12:13:23;8.68;;;2.88;;
54502;SDS011;40411;50.090;21.954;2022-09-09T12:15:54;7.13;;;3.35;;
54502;SDS011;40411;50.090;21.954;2022-09-09T12:18:35;7.38;;;3.00;;
54502;SDS011;40411;50.090;21.954;2022-09-09T12:23:42;5.82;;;2.78;;
54502;SDS011;40411;50.090;21.954;2022-09-09T12:29:12;5.43;;;3.28;;
54502;SDS011;40411;50.090;21.954;2022-09-09T12:31:42;7.03;;;2.70;;
54502;SDS011;40411;50.090;21.954;2022-09-09T12:34:16;6.20;;;3.35;;
54502;SDS011;40411;50.090;21.954;2022-09-09T12:36:52;5.78;;;3.33;;
54502;SDS011;40411;50.090;21.954;2022-09-09T12:39:29;5.40;;;2.78;;
54502;SDS011;40411;50.090;21.954;2022-09-09T12:42:17;6.15;;;2.92;;
54502;SDS011;40411;50.090;21.954;2022-09-09T12:45:03;6.80;;;2.75;;
54502;SDS011;40411;50.090;21.954;2022-09-09T12:50:22;5.47;;;2.85;;
54502;SDS011;40411;50.090;21.954;2022-09-09T12:52:52;5.75;;;2.70;;
54502;SDS011;40411;50.090;21.954;2022-09-09T12:55:35;5.88;;;3.17;;
54502;SDS011;40411;50.090;21.954;2022-09-09T12:58:04;5.88;;;3.03;;
54502;SDS011;40411;50.090;21.954;2022-09-09T13:00:32;5.20;;;3.10;;
54502;SDS011;40411;50.090;21.954;2022-09-09T13:03:00;4.75;;;3.00;;
54502;SDS011;40411;50.090;21.954;2022-09-09T13:05:33;5.15;;;2.92;;
54502;SDS011;40411;50.090;21.954;2022-09-09T13:08:10;5.03;;;3.10;;
54502;SDS011;40411;50.090;21.954;2022-09-09T13:10:44;9.98;;;2.97;;
54502;SDS011;40411;50.090;21.954;2022-09-09T13:13:22;6.63;;;3.20;;
54502;SDS011;40411;50.090;21.954;2022-09-09T13:15:54;4.75;;;2.80;;
54502;SDS011;40411;50.090;21.954;2022-09-09T13:18:23;6.43;;;3.30;;
54502;SDS011;40411;50.090;21.954;2022-09-09T13:20:52;4.75;;;3.00;;
54502;SDS011;40411;50.090;21.954;2022-09-09T13:23:19;6.43;;;3.40;;
54502;SDS011;40411;50.090;21.954;2022-09-09T13:25:56;7.97;;;3.60;;
54502;SDS011;40411;50.090;21.954;2022-09-09T13:28:24;6.25;;;3.30;;
54502;SDS011;40411;50.090;21.954;2022-09-09T13:30:55;7.53;;;3.20;;
54502;SDS011;40411;50.090;21.954;2022-09-09T13:33:33;5.40;;;3.10;;
54502;SDS011;40411;50.090;21.954;2022-09-09T13:36:09;5.78;;;3.20;;
54502;SDS011;40411;50.090;21.954;2022-09-09T13:38:38;4.72;;;3.17;;
54502;SDS011;40411;50.090;21.954;2022-09-09T13:41:21;6.82;;;3.50;;
54502;SDS011;40411;50.090;21.954;2022-09-09T13:43:50;5.20;;;3.50;;
54502;SDS011;40411;50.090;21.954;2022-09-09T13:49:24;4.90;;;2.75;;
54502;SDS011;40411;50.090;21.954;2022-09-09T13:52:02;5.28;;;2.90;;
54502;SDS011;40411;50.090;21.954;2022-09-09T13:54:37;5.65;;;3.38;;
54502;SDS011;40411;50.090;21.954;2022-09-09T13:57:03;6.03;;;3.17;;
54502;SDS011;40411;50.090;21.954;2022-09-09T13:59:30;6.15;;;3.28;;
54502;SDS011;40411;50.090;21.954;2022-09-09T14:01:57;5.85;;;3.13;;
54502;SDS011;40411;50.090;21.954;2022-09-09T14:04:23;4.80;;;2.58;;
54502;SDS011;40411;50.090;21.954;2022-09-09T14:06:49;5.20;;;2.75;;
54502;SDS011;40411;50.090;21.954;2022-09-09T14:09:17;11.15;;;4.47;;
54502;SDS011;40411;50.090;21.954;2022-09-09T14:11:44;4.97;;;2.70;;
54502;SDS011;40411;50.090;21.954;2022-09-09T14:14:13;5.38;;;3.33;;
54502;SDS011;40411;50.090;21.954;2022-09-09T14:16:40;5.53;;;3.00;;
54502;SDS011;40411;50.090;21.954;2022-09-09T14:19:07;5.18;;;2.83;;
54502;SDS011;40411;50.090;21.954;2022-09-09T14:21:33;4.53;;;2.60;;
54502;SDS011;40411;50.090;21.954;2022-09-09T14:24:00;5.93;;;2.80;;
54502;SDS011;40411;50.090;21.954;2022-09-09T14:26:25;4.97;;;2.88;;
54502;SDS011;40411;50.090;21.954;2022-09-09T14:28:52;6.72;;;2.92;;
54502;SDS011;40411;50.090;21.954;2022-09-09T14:31:18;5.03;;;2.70;;
54502;SDS011;40411;50.090;21.954;2022-09-09T14:33:44;5.32;;;2.80;;
54502;SDS011;40411;50.090;21.954;2022-09-09T14:36:10;5.90;;;3.25;;
54502;SDS011;40411;50.090;21.954;2022-09-09T14:38:37;11.10;;;3.15;;
54502;SDS011;40411;50.090;21.954;2022-09-09T14:41:11;5.35;;;2.85;;
54502;SDS011;40411;50.090;21.954;2022-09-09T14:43:39;4.97;;;2.90;;
54502;SDS011;40411;50.090;21.954;2022-09-09T14:46:09;7.22;;;3.10;;
54502;SDS011;40411;50.090;21.954;2022-09-09T14:48:37;7.07;;;3.07;;
54502;SDS011;40411;50.090;21.954;2022-09-09T14:53:40;7.47;;;3.05;;
54502;SDS011;40411;50.090;21.954;2022-09-09T14:56:08;10.52;;;3.38;;
54502;SDS011;40411;50.090;21.954;2022-09-09T14:58:38;6.18;;;3.30;;
54502;SDS011;40411;50.090;21.954;2022-09-09T15:01:04;8.00;;;4.38;;
54502;SDS011;40411;50.090;21.954;2022-09-09T15:03:32;8.48;;;4.65;;
54502;SDS011;40411;50.090;21.954;2022-09-09T15:05:58;6.80;;;4.28;;
54502;SDS011;40411;50.090;21.954;2022-09-09T15:08:31;9.60;;;4.28;;
54502;SDS011;40411;50.090;21.954;2022-09-09T15:11:02;6.68;;;4.13;;
54502;SDS011;40411;50.090;21.954;2022-09-09T15:13:30;7.28;;;4.55;;
54502;SDS011;40411;50.090;21.954;2022-09-09T15:16:00;7.85;;;4.30;;
54502;SDS011;40411;50.090;21.954;2022-09-09T15:18:29;6.80;;;4.32;;
54502;SDS011;40411;50.090;21.954;2022-09-09T15:20:55;8.00;;;4.28;;
54502;SDS011;40411;50.090;21.954;2022-09-09T15:23:21;6.80;;;4.45;;
54502;SDS011;40411;50.090;21.954;2022-09-09T15:25:54;14.35;;;5.28;;
54502;SDS011;40411;50.090;21.954;2022-09-09T15:28:22;11.13;;;6.45;;
54502;SDS011;40411;50.090;21.954;2022-09-09T15:30:49;11.90;;;7.30;;
54502;SDS011;40411;50.090;21.954;2022-09-09T15:33:21;12.60;;;7.60;;
54502;SDS011;40411;50.090;21.954;2022-09-09T15:35:47;12.75;;;8.10;;
54502;SDS011;40411;50.090;21.954;2022-09-09T15:38:15;14.93;;;8.98;;
54502;SDS011;40411;50.090;21.954;2022-09-09T15:40:43;14.82;;;9.68;;
54502;SDS011;40411;50.090;21.954;2022-09-09T15:43:09;20.88;;;9.60;;
54502;SDS011;40411;50.090;21.954;2022-09-09T15:45:36;16.92;;;10.23;;
54502;SDS011;40411;50.090;21.954;2022-09-09T15:48:03;21.30;;;11.73;;
54502;SDS011;40411;50.090;21.954;2022-09-09T15:50:29;21.33;;;11.77;;
54502;SDS011;40411;50.090;21.954;2022-09-09T15:52:59;20.65;;;11.45;;
54502;SDS011;40411;50.090;21.954;2022-09-09T15:55:25;18.60;;;11.68;;
54502;SDS011;40411;50.090;21.954;2022-09-09T15:57:51;10.88;;;7.78;;
54502;SDS011;40411;50.090;21.954;2022-09-09T16:00:19;19.23;;;12.02;;
54502;SDS011;40411;50.090;21.954;2022-09-09T16:02:46;18.02;;;12.10;;
54502;SDS011;40411;50.090;21.954;2022-09-09T16:05:12;22.30;;;12.25;;
54502;SDS011;40411;50.090;21.954;2022-09-09T16:07:39;22.00;;;13.18;;
54502;SDS011;40411;50.090;21.954;2022-09-09T16:10:05;23.83;;;14.13;;
54502;SDS011;40411;50.090;21.954;2022-09-09T16:12:31;23.92;;;13.82;;
54502;SDS011;40411;50.090;21.954;2022-09-09T16:14:58;26.00;;;13.80;;
54502;SDS011;40411;50.090;21.954;2022-09-09T16:17:25;28.15;;;13.02;;
54502;SDS011;40411;50.090;21.954;2022-09-09T16:19:50;25.55;;;14.65;;
54502;SDS011;40411;50.090;21.954;2022-09-09T16:22:16;23.95;;;14.32;;
54502;SDS011;40411;50.090;21.954;2022-09-09T16:24:43;23.60;;;14.13;;
54502;SDS011;40411;50.090;21.954;2022-09-09T16:27:10;27.58;;;14.93;;
54502;SDS011;40411;50.090;21.954;2022-09-09T16:29:37;25.38;;;15.15;;
54502;SDS011;40411;50.090;21.954;2022-09-09T16:32:03;24.23;;;14.52;;
54502;SDS011;40411;50.090;21.954;2022-09-09T16:34:29;29.70;;;15.48;;
54502;SDS011;40411;50.090;21.954;2022-09-09T16:36:55;25.73;;;13.20;;
54502;SDS011;40411;50.090;21.954;2022-09-09T16:39:21;27.70;;;15.00;;
54502;SDS011;40411;50.090;21.954;2022-09-09T16:41:47;22.95;;;14.70;;
54502;SDS011;40411;50.090;21.954;2022-09-09T16:44:14;24.20;;;14.52;;
54502;SDS011;40411;50.090;21.954;2022-09-09T16:46:46;24.52;;;15.02;;
54502;SDS011;40411;50.090;21.954;2022-09-09T16:49:14;26.02;;;15.35;;
54502;SDS011;40411;50.090;21.954;2022-09-09T16:51:43;24.65;;;15.30;;